Berthold, ND (58718)

12:22 PM CDT on July 23, 2014 (GMT -0500)
Minot Air Force Base (KMIB) Elev 1667 ft | 48.42 °N, 101.36 °W | Change Station

Current weather conditions updated 14 minutes ago

Mostly Cloudy
Mostly Cloudy
70 °F
Feels Like 70 °F
N
18
Wind Variable Wind from ESE

Today is forecast to be Cooler than yesterday.

Today
High -- | Low -- °F
--% Chance of Precip.
Yesterday
High -- | Low -- °F
Precip. -- in
6:11 AM 9:35 PM
Waning Crescent, 9% visible
Pressure 30.25 in
Visibility 10.0 miles
Clouds Mostly Cloudy 1500 ft
Dew Point 66 °F
Humidity 88%
Rainfall 0.02 in
Snow Depth Not available.
UV 5 out of 12
Pollen 6.50 out of 12
Air Quality Not available.
Flu Activity Not available.
SPECI KMIB 231708Z AUTO 11016KT 10SM BKN015 21/19 A3025 RMK AO2 $

More Conditions Fewer Conditions

Pressure 30.25 in
Visibility 10.0 miles
Clouds Mostly Cloudy 1500 ft
Dew Point 66 °F
Humidity 88%
Rainfall 0.02 in
Snow Depth Not available.
UV 5 out of 12
Pollen 6.50 out of 12
Air Quality Not available.
Flu Activity Not available.
SPECI KMIB 231708Z AUTO 11016KT 10SM BKN015 21/19 A3025 RMK AO2 $

More Conditions Fewer Conditions

10-Day Weather Forecast

Almanac

Astronomy

Jul. 23, 2014 Rise Set
Actual Time 6:11 AM CDT 9:35 PM CDT
Civil Twilight 5:32 AM CDT 10:14 PM CDT
Nautical Twilight 4:42 AM CDT 11:04 PM CDT
Astronomical Twilight 3:34 AM CDT 12:10 AM CDT
Moon 3:33 AM CDT 7:04 PM CDT
Length of Visible Light 16h 41m
Length of Day
15h 24m
Tomorrow will be 2m 23s shorter.
Waning Crescent, 9% of the Moon is Illuminated
Today
Waning Crescent
Jul 26
New
Aug 3
First Quarter
Aug 10
Full
Aug 17
Last Quarter

Today's Extremes

State Highs State Lows

Community

WunderPhotos

Upload Photos

1,736,678 photos uploaded!

Nearby

Snow Depth

Station Depth Elevation
No new snow has been reported.

Earthquake Activity

City Distance Mag. Time & Date
No recent earthquake activity has been reported nearby.
Minimum magnitude displayed is 2.5.

Coastal Water Temperatures

Place Temperature
No Stations Reporting

Nearby Weather Stations

There are no personal weather stations in this area.